sensor_id;sensor_type;location;lat;lon;timestamp;P1;durP1;ratioP1;P2;durP2;ratioP2
61471;SDS011;47337;54.068;12.114;2024-02-28T00:01:01;12.48;;;4.63;;
61471;SDS011;47337;54.068;12.114;2024-02-28T00:03:26;11.55;;;5.80;;
61471;SDS011;47337;54.068;12.114;2024-02-28T00:05:52;9.50;;;5.00;;
61471;SDS011;47337;54.068;12.114;2024-02-28T00:08:19;11.73;;;5.57;;
61471;SDS011;47337;54.068;12.114;2024-02-28T00:10:45;10.52;;;5.53;;
61471;SDS011;47337;54.068;12.114;2024-02-28T00:13:10;12.63;;;5.50;;
61471;SDS011;47337;54.068;12.114;2024-02-28T00:15:38;11.50;;;5.78;;
61471;SDS011;47337;54.068;12.114;2024-02-28T00:18:03;14.82;;;5.22;;
61471;SDS011;47337;54.068;12.114;2024-02-28T00:20:29;12.32;;;5.43;;
61471;SDS011;47337;54.068;12.114;2024-02-28T00:22:54;12.25;;;5.82;;
61471;SDS011;47337;54.068;12.114;2024-02-28T00:25:20;12.43;;;5.57;;
61471;SDS011;47337;54.068;12.114;2024-02-28T00:27:47;11.82;;;5.70;;
61471;SDS011;47337;54.068;12.114;2024-02-28T00:30:12;12.23;;;5.22;;
61471;SDS011;47337;54.068;12.114;2024-02-28T00:32:38;12.10;;;5.20;;
61471;SDS011;47337;54.068;12.114;2024-02-28T00:35:04;10.48;;;5.13;;
61471;SDS011;47337;54.068;12.114;2024-02-28T00:37:29;12.00;;;5.45;;
61471;SDS011;47337;54.068;12.114;2024-02-28T00:39:54;11.38;;;5.55;;
61471;SDS011;47337;54.068;12.114;2024-02-28T00:42:22;11.93;;;5.28;;
61471;SDS011;47337;54.068;12.114;2024-02-28T00:44:50;9.38;;;4.47;;
61471;SDS011;47337;54.068;12.114;2024-02-28T00:47:17;12.60;;;5.10;;
61471;SDS011;47337;54.068;12.114;2024-02-28T00:49:43;11.15;;;4.45;;
61471;SDS011;47337;54.068;12.114;2024-02-28T00:52:08;11.85;;;5.07;;
61471;SDS011;47337;54.068;12.114;2024-02-28T00:54:35;11.27;;;5.30;;
61471;SDS011;47337;54.068;12.114;2024-02-28T00:57:01;13.45;;;6.05;;
61471;SDS011;47337;54.068;12.114;2024-02-28T00:59:26;12.40;;;5.15;;
61471;SDS011;47337;54.068;12.114;2024-02-28T01:01:51;9.32;;;4.35;;
61471;SDS011;47337;54.068;12.114;2024-02-28T01:04:16;11.65;;;5.32;;
61471;SDS011;47337;54.068;12.114;2024-02-28T01:06:42;9.25;;;5.32;;
61471;SDS011;47337;54.068;12.114;2024-02-28T01:09:07;13.57;;;5.40;;
61471;SDS011;47337;54.068;12.114;2024-02-28T01:11:35;12.30;;;5.25;;
61471;SDS011;47337;54.068;12.114;2024-02-28T01:14:00;10.75;;;5.00;;
61471;SDS011;47337;54.068;12.114;2024-02-28T01:16:25;11.75;;;5.07;;
61471;SDS011;47337;54.068;12.114;2024-02-28T01:18:51;11.18;;;4.70;;
61471;SDS011;47337;54.068;12.114;2024-02-28T01:21:16;10.50;;;4.43;;
61471;SDS011;47337;54.068;12.114;2024-02-28T01:23:43;8.73;;;4.28;;
61471;SDS011;47337;54.068;12.114;2024-02-28T01:26:09;11.32;;;4.78;;
61471;SDS011;47337;54.068;12.114;2024-02-28T01:28:34;10.57;;;4.63;;
61471;SDS011;47337;54.068;12.114;2024-02-28T01:31:01;10.48;;;4.75;;
61471;SDS011;47337;54.068;12.114;2024-02-28T01:33:30;10.90;;;5.00;;
61471;SDS011;47337;54.068;12.114;2024-02-28T01:35:56;13.95;;;5.03;;
61471;SDS011;47337;54.068;12.114;2024-02-28T01:38:23;8.90;;;4.38;;
61471;SDS011;47337;54.068;12.114;2024-02-28T01:40:49;12.00;;;5.47;;
61471;SDS011;47337;54.068;12.114;2024-02-28T01:43:14;9.55;;;4.57;;
61471;SDS011;47337;54.068;12.114;2024-02-28T01:45:39;10.73;;;5.13;;
61471;SDS011;47337;54.068;12.114;2024-02-28T01:48:09;11.05;;;4.78;;
61471;SDS011;47337;54.068;12.114;2024-02-28T01:50:35;10.23;;;4.68;;
61471;SDS011;47337;54.068;12.114;2024-02-28T01:53:02;12.13;;;5.13;;
61471;SDS011;47337;54.068;12.114;2024-02-28T01:55:27;11.70;;;4.93;;
61471;SDS011;47337;54.068;12.114;2024-02-28T01:57:52;12.35;;;4.90;;
61471;SDS011;47337;54.068;12.114;2024-02-28T02:00:18;10.88;;;4.15;;
61471;SDS011;47337;54.068;12.114;2024-02-28T02:02:43;12.70;;;5.65;;
61471;SDS011;47337;54.068;12.114;2024-02-28T02:05:09;13.30;;;5.10;;
61471;SDS011;47337;54.068;12.114;2024-02-28T02:07:34;11.93;;;5.65;;
61471;SDS011;47337;54.068;12.114;2024-02-28T02:10:00;13.65;;;5.55;;
61471;SDS011;47337;54.068;12.114;2024-02-28T02:12:25;13.60;;;5.68;;
61471;SDS011;47337;54.068;12.114;2024-02-28T02:14:51;12.48;;;5.30;;
61471;SDS011;47337;54.068;12.114;2024-02-28T02:17:16;11.85;;;4.85;;
61471;SDS011;47337;54.068;12.114;2024-02-28T02:19:41;11.82;;;4.78;;
61471;SDS011;47337;54.068;12.114;2024-02-28T02:22:07;11.63;;;5.18;;
61471;SDS011;47337;54.068;12.114;2024-02-28T02:24:33;12.98;;;4.75;;
61471;SDS011;47337;54.068;12.114;2024-02-28T02:26:58;12.05;;;5.07;;
61471;SDS011;47337;54.068;12.114;2024-02-28T02:29:26;13.15;;;5.18;;
61471;SDS011;47337;54.068;12.114;2024-02-28T02:31:53;10.50;;;5.22;;
61471;SDS011;47337;54.068;12.114;2024-02-28T02:34:18;12.32;;;5.53;;
61471;SDS011;47337;54.068;12.114;2024-02-28T02:36:43;12.48;;;5.05;;
61471;SDS011;47337;54.068;12.114;2024-02-28T02:39:09;11.73;;;5.47;;
61471;SDS011;47337;54.068;12.114;2024-02-28T02:41:34;9.68;;;4.60;;
61471;SDS011;47337;54.068;12.114;2024-02-28T02:44:00;11.02;;;5.10;;
61471;SDS011;47337;54.068;12.114;2024-02-28T02:46:25;12.27;;;5.00;;
61471;SDS011;47337;54.068;12.114;2024-02-28T02:48:50;11.73;;;5.20;;
61471;SDS011;47337;54.068;12.114;2024-02-28T02:51:19;10.85;;;5.03;;
61471;SDS011;47337;54.068;12.114;2024-02-28T02:53:44;11.95;;;5.30;;
61471;SDS011;47337;54.068;12.114;2024-02-28T02:56:10;14.73;;;5.60;;
61471;SDS011;47337;54.068;12.114;2024-02-28T02:58:35;10.45;;;4.97;;
61471;SDS011;47337;54.068;12.114;2024-02-28T03:01:00;13.40;;;5.38;;
61471;SDS011;47337;54.068;12.114;2024-02-28T03:03:28;13.32;;;5.63;;
61471;SDS011;47337;54.068;12.114;2024-02-28T03:05:53;11.35;;;5.63;;
61471;SDS011;47337;54.068;12.114;2024-02-28T03:08:18;13.90;;;5.47;;
61471;SDS011;47337;54.068;12.114;2024-02-28T03:10:43;11.02;;;4.85;;
61471;SDS011;47337;54.068;12.114;2024-02-28T03:13:09;13.40;;;6.40;;
61471;SDS011;47337;54.068;12.114;2024-02-28T03:15:34;10.75;;;4.93;;
61471;SDS011;47337;54.068;12.114;2024-02-28T03:18:01;15.18;;;5.80;;
61471;SDS011;47337;54.068;12.114;2024-02-28T03:20:27;10.65;;;4.90;;
61471;SDS011;47337;54.068;12.114;2024-02-28T03:22:52;12.10;;;5.28;;
61471;SDS011;47337;54.068;12.114;2024-02-28T03:25:20;13.60;;;5.57;;
61471;SDS011;47337;54.068;12.114;2024-02-28T03:27:45;12.70;;;5.65;;
61471;SDS011;47337;54.068;12.114;2024-02-28T03:30:10;14.55;;;5.80;;
61471;SDS011;47337;54.068;12.114;2024-02-28T03:32:36;13.82;;;5.68;;
61471;SDS011;47337;54.068;12.114;2024-02-28T03:35:03;17.55;;;6.22;;
61471;SDS011;47337;54.068;12.114;2024-02-28T03:37:30;14.00;;;6.75;;
61471;SDS011;47337;54.068;12.114;2024-02-28T03:39:56;15.85;;;7.22;;
61471;SDS011;47337;54.068;12.114;2024-02-28T03:42:21;15.25;;;6.05;;
61471;SDS011;47337;54.068;12.114;2024-02-28T03:44:47;15.70;;;6.38;;
61471;SDS011;47337;54.068;12.114;2024-02-28T03:47:12;17.98;;;6.97;;
61471;SDS011;47337;54.068;12.114;2024-02-28T03:49:37;16.90;;;6.93;;
61471;SDS011;47337;54.068;12.114;2024-02-28T03:52:02;16.52;;;7.82;;
61471;SDS011;47337;54.068;12.114;2024-02-28T03:54:30;19.50;;;7.78;;
61471;SDS011;47337;54.068;12.114;2024-02-28T03:56:57;17.55;;;7.40;;
61471;SDS011;47337;54.068;12.114;2024-02-28T03:59:24;19.95;;;8.25;;
61471;SDS011;47337;54.068;12.114;2024-02-28T04:01:49;17.17;;;7.90;;
61471;SDS011;47337;54.068;12.114;2024-02-28T04:04:14;17.00;;;7.32;;
61471;SDS011;47337;54.068;12.114;2024-02-28T04:06:42;17.00;;;7.28;;
61471;SDS011;47337;54.068;12.114;2024-02-28T04:09:07;16.60;;;6.55;;
61471;SDS011;47337;54.068;12.114;2024-02-28T04:11:33;16.75;;;7.53;;
61471;SDS011;47337;54.068;12.114;2024-02-28T04:13:59;17.98;;;7.60;;
61471;SDS011;47337;54.068;12.114;2024-02-28T04:16:24;15.75;;;7.18;;
61471;SDS011;47337;54.068;12.114;2024-02-28T04:18:49;20.00;;;7.32;;
61471;SDS011;47337;54.068;12.114;2024-02-28T04:21:14;17.98;;;6.95;;
61471;SDS011;47337;54.068;12.114;2024-02-28T04:23:40;19.05;;;7.38;;
61471;SDS011;47337;54.068;12.114;2024-02-28T04:26:06;16.77;;;6.70;;
61471;SDS011;47337;54.068;12.114;2024-02-28T04:28:34;17.42;;;6.78;;
61471;SDS011;47337;54.068;12.114;2024-02-28T04:30:59;18.65;;;7.72;;
61471;SDS011;47337;54.068;12.114;2024-02-28T04:33:25;16.80;;;6.85;;
61471;SDS011;47337;54.068;12.114;2024-02-28T04:35:50;19.27;;;7.03;;
61471;SDS011;47337;54.068;12.114;2024-02-28T04:38:15;19.00;;;7.57;;
61471;SDS011;47337;54.068;12.114;2024-02-28T04:40:40;17.17;;;7.10;;
61471;SDS011;47337;54.068;12.114;2024-02-28T04:43:06;17.63;;;7.28;;
61471;SDS011;47337;54.068;12.114;2024-02-28T04:45:31;15.77;;;6.43;;
61471;SDS011;47337;54.068;12.114;2024-02-28T04:47:56;17.33;;;6.85;;
61471;SDS011;47337;54.068;12.114;2024-02-28T04:50:24;19.30;;;7.13;;
61471;SDS011;47337;54.068;12.114;2024-02-28T04:52:49;18.83;;;7.68;;
61471;SDS011;47337;54.068;12.114;2024-02-28T04:55:17;17.63;;;7.15;;
61471;SDS011;47337;54.068;12.114;2024-02-28T04:57:42;14.98;;;6.75;;
61471;SDS011;47337;54.068;12.114;2024-02-28T05:00:07;17.00;;;6.65;;
61471;SDS011;47337;54.068;12.114;2024-02-28T05:02:33;18.15;;;7.25;;
61471;SDS011;47337;54.068;12.114;2024-02-28T05:04:59;18.55;;;8.18;;
61471;SDS011;47337;54.068;12.114;2024-02-28T05:07:26;21.45;;;7.95;;
61471;SDS011;47337;54.068;12.114;2024-02-28T05:09:51;17.85;;;7.07;;
61471;SDS011;47337;54.068;12.114;2024-02-28T05:12:16;15.77;;;6.60;;
61471;SDS011;47337;54.068;12.114;2024-02-28T05:14:42;16.75;;;6.85;;
61471;SDS011;47337;54.068;12.114;2024-02-28T05:17:07;16.50;;;7.10;;
61471;SDS011;47337;54.068;12.114;2024-02-28T05:19:32;16.13;;;6.65;;
61471;SDS011;47337;54.068;12.114;2024-02-28T05:21:57;16.38;;;6.38;;
61471;SDS011;47337;54.068;12.114;2024-02-28T05:24:23;15.70;;;6.22;;
61471;SDS011;47337;54.068;12.114;2024-02-28T05:26:48;18.27;;;7.28;;
61471;SDS011;47337;54.068;12.114;2024-02-28T05:29:13;20.33;;;7.53;;
61471;SDS011;47337;54.068;12.114;2024-02-28T05:31:38;17.08;;;7.00;;
61471;SDS011;47337;54.068;12.114;2024-02-28T05:34:04;16.92;;;6.95;;
61471;SDS011;47337;54.068;12.114;2024-02-28T05:36:30;16.63;;;6.40;;
61471;SDS011;47337;54.068;12.114;2024-02-28T05:38:56;17.90;;;7.20;;
61471;SDS011;47337;54.068;12.114;2024-02-28T05:41:21;16.67;;;6.90;;
61471;SDS011;47337;54.068;12.114;2024-02-28T05:43:47;15.68;;;6.43;;
61471;SDS011;47337;54.068;12.114;2024-02-28T05:46:13;20.42;;;7.65;;
61471;SDS011;47337;54.068;12.114;2024-02-28T05:48:42;19.98;;;7.63;;
61471;SDS011;47337;54.068;12.114;2024-02-28T05:51:08;16.55;;;7.13;;
61471;SDS011;47337;54.068;12.114;2024-02-28T05:53:33;17.90;;;6.80;;
61471;SDS011;47337;54.068;12.114;2024-02-28T05:56:01;16.75;;;7.30;;
61471;SDS011;47337;54.068;12.114;2024-02-28T05:58:29;15.45;;;6.88;;
61471;SDS011;47337;54.068;12.114;2024-02-28T06:00:54;15.88;;;6.47;;
61471;SDS011;47337;54.068;12.114;2024-02-28T06:03:19;19.75;;;7.15;;
61471;SDS011;47337;54.068;12.114;2024-02-28T06:05:44;15.05;;;7.00;;
61471;SDS011;47337;54.068;12.114;2024-02-28T06:08:10;15.63;;;7.00;;
61471;SDS011;47337;54.068;12.114;2024-02-28T06:10:35;20.23;;;7.68;;
61471;SDS011;47337;54.068;12.114;2024-02-28T06:13:00;17.63;;;7.30;;
61471;SDS011;47337;54.068;12.114;2024-02-28T06:15:26;18.15;;;7.38;;
61471;SDS011;47337;54.068;12.114;2024-02-28T06:17:51;19.25;;;7.68;;
61471;SDS011;47337;54.068;12.114;2024-02-28T06:20:19;21.67;;;8.32;;
61471;SDS011;47337;54.068;12.114;2024-02-28T06:22:44;16.80;;;6.90;;
61471;SDS011;47337;54.068;12.114;2024-02-28T06:25:12;17.90;;;7.78;;
61471;SDS011;47337;54.068;12.114;2024-02-28T06:27:44;18.35;;;8.10;;
61471;SDS011;47337;54.068;12.114;2024-02-28T06:30:12;18.40;;;7.70;;
61471;SDS011;47337;54.068;12.114;2024-02-28T06:32:38;18.23;;;8.02;;
61471;SDS011;47337;54.068;12.114;2024-02-28T06:35:03;20.05;;;8.07;;
61471;SDS011;47337;54.068;12.114;2024-02-28T06:37:29;19.40;;;7.90;;
61471;SDS011;47337;54.068;12.114;2024-02-28T06:39:54;21.35;;;9.13;;
61471;SDS011;47337;54.068;12.114;2024-02-28T06:42:21;23.30;;;8.32;;
61471;SDS011;47337;54.068;12.114;2024-02-28T06:44:47;22.52;;;9.70;;
61471;SDS011;47337;54.068;12.114;2024-02-28T06:47:12;29.63;;;10.75;;
61471;SDS011;47337;54.068;12.114;2024-02-28T06:49:37;27.02;;;10.75;;
61471;SDS011;47337;54.068;12.114;2024-02-28T06:52:03;28.38;;;11.75;;
61471;SDS011;47337;54.068;12.114;2024-02-28T06:54:28;25.13;;;10.70;;
61471;SDS011;47337;54.068;12.114;2024-02-28T06:56:54;29.65;;;11.55;;
61471;SDS011;47337;54.068;12.114;2024-02-28T06:59:19;26.23;;;10.85;;
61471;SDS011;47337;54.068;12.114;2024-02-28T07:01:45;31.70;;;12.00;;
61471;SDS011;47337;54.068;12.114;2024-02-28T07:04:11;29.52;;;11.07;;
61471;SDS011;47337;54.068;12.114;2024-02-28T07:06:39;28.52;;;10.40;;
61471;SDS011;47337;54.068;12.114;2024-02-28T07:09:07;25.90;;;11.45;;
61471;SDS011;47337;54.068;12.114;2024-02-28T07:11:32;22.35;;;9.65;;
61471;SDS011;47337;54.068;12.114;2024-02-28T07:13:58;24.50;;;9.25;;
61471;SDS011;47337;54.068;12.114;2024-02-28T07:16:27;22.33;;;9.18;;
61471;SDS011;47337;54.068;12.114;2024-02-28T07:18:52;20.50;;;8.48;;
61471;SDS011;47337;54.068;12.114;2024-02-28T07:21:17;20.00;;;7.68;;
61471;SDS011;47337;54.068;12.114;2024-02-28T07:23:43;15.50;;;7.72;;
61471;SDS011;47337;54.068;12.114;2024-02-28T07:26:08;20.25;;;8.60;;
61471;SDS011;47337;54.068;12.114;2024-02-28T07:28:33;19.77;;;8.13;;
61471;SDS011;47337;54.068;12.114;2024-02-28T07:30:58;15.88;;;6.88;;
61471;SDS011;47337;54.068;12.114;2024-02-28T07:33:26;16.33;;;6.72;;
61471;SDS011;47337;54.068;12.114;2024-02-28T07:35:52;17.15;;;7.68;;
61471;SDS011;47337;54.068;12.114;2024-02-28T07:38:20;20.35;;;7.32;;
61471;SDS011;47337;54.068;12.114;2024-02-28T07:40:47;14.38;;;6.18;;
61471;SDS011;47337;54.068;12.114;2024-02-28T07:43:12;14.68;;;6.28;;
61471;SDS011;47337;54.068;12.114;2024-02-28T07:45:37;14.50;;;6.32;;
61471;SDS011;47337;54.068;12.114;2024-02-28T07:48:05;13.70;;;5.80;;
61471;SDS011;47337;54.068;12.114;2024-02-28T07:50:31;12.43;;;5.70;;
61471;SDS011;47337;54.068;12.114;2024-02-28T07:52:56;13.13;;;5.85;;
61471;SDS011;47337;54.068;12.114;2024-02-28T07:55:21;17.27;;;7.05;;
61471;SDS011;47337;54.068;12.114;2024-02-28T07:57:50;15.23;;;6.70;;
61471;SDS011;47337;54.068;12.114;2024-02-28T08:00:15;16.50;;;7.00;;
61471;SDS011;47337;54.068;12.114;2024-02-28T08:02:45;13.35;;;6.97;;
61471;SDS011;47337;54.068;12.114;2024-02-28T08:05:10;16.63;;;6.65;;
61471;SDS011;47337;54.068;12.114;2024-02-28T08:07:36;15.27;;;7.05;;
61471;SDS011;47337;54.068;12.114;2024-02-28T08:10:01;17.02;;;7.32;;
61471;SDS011;47337;54.068;12.114;2024-02-28T08:12:29;15.48;;;7.00;;
61471;SDS011;47337;54.068;12.114;2024-02-28T08:14:54;19.10;;;7.53;;
61471;SDS011;47337;54.068;12.114;2024-02-28T08:17:19;12.85;;;6.93;;
61471;SDS011;47337;54.068;12.114;2024-02-28T08:19:44;12.77;;;6.78;;
61471;SDS011;47337;54.068;12.114;2024-02-28T08:22:10;12.85;;;6.68;;
61471;SDS011;47337;54.068;12.114;2024-02-28T08:24:35;11.63;;;5.78;;
61471;SDS011;47337;54.068;12.114;2024-02-28T08:27:01;15.15;;;6.88;;
61471;SDS011;47337;54.068;12.114;2024-02-28T08:29:26;13.52;;;6.63;;
61471;SDS011;47337;54.068;12.114;2024-02-28T08:31:52;14.68;;;6.95;;
61471;SDS011;47337;54.068;12.114;2024-02-28T08:34:17;15.10;;;6.95;;
61471;SDS011;47337;54.068;12.114;2024-02-28T08:36:42;15.40;;;7.50;;
61471;SDS011;47337;54.068;12.114;2024-02-28T08:39:08;15.60;;;7.80;;
61471;SDS011;47337;54.068;12.114;2024-02-28T08:41:34;15.10;;;7.25;;
61471;SDS011;47337;54.068;12.114;2024-02-28T08:43:59;12.07;;;6.07;;
61471;SDS011;47337;54.068;12.114;2024-02-28T08:46:24;13.52;;;6.50;;
61471;SDS011;47337;54.068;12.114;2024-02-28T08:48:50;12.18;;;6.18;;
61471;SDS011;47337;54.068;12.114;2024-02-28T08:51:15;16.60;;;7.97;;
61471;SDS011;47337;54.068;12.114;2024-02-28T08:53:40;14.13;;;7.28;;
61471;SDS011;47337;54.068;12.114;2024-02-28T08:56:05;14.18;;;6.78;;
61471;SDS011;47337;54.068;12.114;2024-02-28T08:58:31;13.90;;;7.05;;
61471;SDS011;47337;54.068;12.114;2024-02-28T09:00:59;17.00;;;8.77;;
61471;SDS011;47337;54.068;12.114;2024-02-28T09:03:25;13.65;;;6.88;;
61471;SDS011;47337;54.068;12.114;2024-02-28T09:05:50;14.85;;;7.53;;
61471;SDS011;47337;54.068;12.114;2024-02-28T09:08:16;14.25;;;7.35;;
61471;SDS011;47337;54.068;12.114;2024-02-28T09:10:41;13.80;;;7.30;;
61471;SDS011;47337;54.068;12.114;2024-02-28T09:13:06;15.10;;;8.38;;
61471;SDS011;47337;54.068;12.114;2024-02-28T09:15:32;16.83;;;8.40;;
61471;SDS011;47337;54.068;12.114;2024-02-28T09:17:59;14.48;;;7.82;;
61471;SDS011;47337;54.068;12.114;2024-02-28T09:20:25;14.93;;;8.13;;
61471;SDS011;47337;54.068;12.114;2024-02-28T09:22:51;14.65;;;7.57;;
61471;SDS011;47337;54.068;12.114;2024-02-28T09:25:16;17.75;;;8.63;;
61471;SDS011;47337;54.068;12.114;2024-02-28T09:27:43;17.38;;;9.07;;
61471;SDS011;47337;54.068;12.114;2024-02-28T09:30:08;17.67;;;8.60;;
61471;SDS011;47337;54.068;12.114;2024-02-28T09:32:34;18.30;;;9.25;;
61471;SDS011;47337;54.068;12.114;2024-02-28T09:34:59;18.05;;;9.63;;
61471;SDS011;47337;54.068;12.114;2024-02-28T09:37:24;16.48;;;8.98;;
61471;SDS011;47337;54.068;12.114;2024-02-28T09:39:50;21.55;;;9.38;;
61471;SDS011;47337;54.068;12.114;2024-02-28T09:42:15;18.60;;;9.18;;
61471;SDS011;47337;54.068;12.114;2024-02-28T09:44:40;21.20;;;10.25;;
61471;SDS011;47337;54.068;12.114;2024-02-28T09:47:10;22.83;;;10.80;;
61471;SDS011;47337;54.068;12.114;2024-02-28T09:49:36;19.88;;;10.20;;
61471;SDS011;47337;54.068;12.114;2024-02-28T09:52:02;18.33;;;8.70;;
61471;SDS011;47337;54.068;12.114;2024-02-28T09:54:28;19.52;;;9.57;;
61471;SDS011;47337;54.068;12.114;2024-02-28T09:56:54;23.77;;;10.68;;
61471;SDS011;47337;54.068;12.114;2024-02-28T09:59:19;24.27;;;11.18;;
61471;SDS011;47337;54.068;12.114;2024-02-28T10:01:47;22.92;;;11.20;;
61471;SDS011;47337;54.068;12.114;2024-02-28T10:04:14;20.75;;;10.68;;
61471;SDS011;47337;54.068;12.114;2024-02-28T10:06:39;21.45;;;10.75;;
61471;SDS011;47337;54.068;12.114;2024-02-28T10:09:05;22.25;;;10.02;;
61471;SDS011;47337;54.068;12.114;2024-02-28T10:11:30;19.83;;;10.23;;
61471;SDS011;47337;54.068;12.114;2024-02-28T10:13:55;19.58;;;10.40;;
61471;SDS011;47337;54.068;12.114;2024-02-28T10:16:20;24.45;;;11.77;;
61471;SDS011;47337;54.068;12.114;2024-02-28T10:18:46;21.05;;;10.18;;
61471;SDS011;47337;54.068;12.114;2024-02-28T10:21:11;23.20;;;10.80;;
61471;SDS011;47337;54.068;12.114;2024-02-28T10:23:43;20.63;;;10.00;;
61471;SDS011;47337;54.068;12.114;2024-02-28T10:26:11;23.00;;;11.40;;
61471;SDS011;47337;54.068;12.114;2024-02-28T10:28:37;22.58;;;11.05;;
61471;SDS011;47337;54.068;12.114;2024-02-28T10:31:04;21.88;;;10.18;;
61471;SDS011;47337;54.068;12.114;2024-02-28T10:33:29;21.95;;;9.80;;
61471;SDS011;47337;54.068;12.114;2024-02-28T10:35:54;23.98;;;11.52;;
61471;SDS011;47337;54.068;12.114;2024-02-28T10:38:20;20.60;;;10.60;;
61471;SDS011;47337;54.068;12.114;2024-02-28T10:40:45;19.60;;;10.20;;
61471;SDS011;47337;54.068;12.114;2024-02-28T10:43:12;22.23;;;10.70;;
61471;SDS011;47337;54.068;12.114;2024-02-28T10:45:37;22.67;;;11.55;;
61471;SDS011;47337;54.068;12.114;2024-02-28T10:48:05;20.42;;;10.20;;
61471;SDS011;47337;54.068;12.114;2024-02-28T10:50:31;23.17;;;10.82;;
61471;SDS011;47337;54.068;12.114;2024-02-28T10:53:05;23.20;;;11.60;;
61471;SDS011;47337;54.068;12.114;2024-02-28T10:55:34;20.30;;;10.68;;
61471;SDS011;47337;54.068;12.114;2024-02-28T10:58:08;24.45;;;13.52;;
61471;SDS011;47337;54.068;12.114;2024-02-28T11:00:34;24.35;;;12.63;;
61471;SDS011;47337;54.068;12.114;2024-02-28T11:03:01;26.25;;;13.93;;
61471;SDS011;47337;54.068;12.114;2024-02-28T11:05:37;21.77;;;10.65;;
61471;SDS011;47337;54.068;12.114;2024-02-28T11:08:04;25.48;;;11.60;;
61471;SDS011;47337;54.068;12.114;2024-02-28T11:10:31;24.30;;;12.27;;
61471;SDS011;47337;54.068;12.114;2024-02-28T11:12:59;25.15;;;12.18;;
61471;SDS011;47337;54.068;12.114;2024-02-28T11:15:25;23.60;;;12.02;;
61471;SDS011;47337;54.068;12.114;2024-02-28T11:17:52;27.33;;;12.50;;
61471;SDS011;47337;54.068;12.114;2024-02-28T11:20:17;25.60;;;12.63;;
61471;SDS011;47337;54.068;12.114;2024-02-28T11:22:45;23.70;;;12.93;;
61471;SDS011;47337;54.068;12.114;2024-02-28T11:25:11;24.50;;;12.95;;
61471;SDS011;47337;54.068;12.114;2024-02-28T11:27:47;23.42;;;12.15;;
61471;SDS011;47337;54.068;12.114;2024-02-28T11:30:12;26.73;;;12.90;;
61471;SDS011;47337;54.068;12.114;2024-02-28T11:32:38;26.27;;;13.05;;
61471;SDS011;47337;54.068;12.114;2024-02-28T11:35:03;23.30;;;11.27;;
61471;SDS011;47337;54.068;12.114;2024-02-28T11:37:29;25.90;;;12.77;;
61471;SDS011;47337;54.068;12.114;2024-02-28T11:39:56;26.80;;;13.35;;
61471;SDS011;47337;54.068;12.114;2024-02-28T11:42:24;24.35;;;12.60;;
61471;SDS011;47337;54.068;12.114;2024-02-28T11:44:53;24.85;;;12.63;;
61471;SDS011;47337;54.068;12.114;2024-02-28T11:47:19;26.67;;;13.55;;
61471;SDS011;47337;54.068;12.114;2024-02-28T11:49:44;27.55;;;13.57;;
61471;SDS011;47337;54.068;12.114;2024-02-28T11:52:09;25.80;;;13.13;;
61471;SDS011;47337;54.068;12.114;2024-02-28T11:54:36;25.58;;;13.20;;
61471;SDS011;47337;54.068;12.114;2024-02-28T11:57:03;24.50;;;12.27;;
61471;SDS011;47337;54.068;12.114;2024-02-28T11:59:29;25.42;;;14.43;;
61471;SDS011;47337;54.068;12.114;2024-02-28T12:01:54;25.35;;;13.43;;
61471;SDS011;47337;54.068;12.114;2024-02-28T12:04:20;25.42;;;12.43;;
61471;SDS011;47337;54.068;12.114;2024-02-28T12:06:48;26.10;;;12.90;;
61471;SDS011;47337;54.068;12.114;2024-02-28T12:09:13;23.83;;;13.07;;
61471;SDS011;47337;54.068;12.114;2024-02-28T12:11:39;25.48;;;13.40;;
61471;SDS011;47337;54.068;12.114;2024-02-28T12:14:05;25.38;;;13.63;;
61471;SDS011;47337;54.068;12.114;2024-02-28T12:16:34;23.88;;;13.00;;
61471;SDS011;47337;54.068;12.114;2024-02-28T12:18:59;24.25;;;11.90;;
61471;SDS011;47337;54.068;12.114;2024-02-28T12:21:24;22.98;;;12.10;;
61471;SDS011;47337;54.068;12.114;2024-02-28T12:23:50;24.80;;;12.77;;
61471;SDS011;47337;54.068;12.114;2024-02-28T12:26:18;23.17;;;11.93;;
61471;SDS011;47337;54.068;12.114;2024-02-28T12:28:46;22.55;;;11.35;;
61471;SDS011;47337;54.068;12.114;2024-02-28T12:31:11;22.27;;;11.30;;
61471;SDS011;47337;54.068;12.114;2024-02-28T12:33:39;21.60;;;11.20;;
61471;SDS011;47337;54.068;12.114;2024-02-28T12:36:07;21.52;;;10.82;;
61471;SDS011;47337;54.068;12.114;2024-02-28T12:38:32;23.80;;;12.80;;
61471;SDS011;47337;54.068;12.114;2024-02-28T12:40:58;21.27;;;11.88;;
61471;SDS011;47337;54.068;12.114;2024-02-28T12:43:23;23.35;;;11.85;;
61471;SDS011;47337;54.068;12.114;2024-02-28T12:45:50;22.00;;;11.25;;
61471;SDS011;47337;54.068;12.114;2024-02-28T12:48:15;20.20;;;11.10;;
61471;SDS011;47337;54.068;12.114;2024-02-28T12:50:43;23.05;;;12.20;;
61471;SDS011;47337;54.068;12.114;2024-02-28T12:53:10;23.80;;;12.27;;
61471;SDS011;47337;54.068;12.114;2024-02-28T12:55:35;22.98;;;11.68;;
61471;SDS011;47337;54.068;12.114;2024-02-28T12:58:01;21.77;;;12.23;;
61471;SDS011;47337;54.068;12.114;2024-02-28T13:00:29;18.73;;;10.82;;
61471;SDS011;47337;54.068;12.114;2024-02-28T13:02:54;23.65;;;11.52;;
61471;SDS011;47337;54.068;12.114;2024-02-28T13:05:20;28.42;;;12.13;;
61471;SDS011;47337;54.068;12.114;2024-02-28T13:07:45;17.48;;;10.45;;
61471;SDS011;47337;54.068;12.114;2024-02-28T13:10:10;18.35;;;10.00;;
61471;SDS011;47337;54.068;12.114;2024-02-28T13:12:37;21.30;;;10.73;;
61471;SDS011;47337;54.068;12.114;2024-02-28T13:15:03;19.30;;;11.13;;
61471;SDS011;47337;54.068;12.114;2024-02-28T13:17:32;20.60;;;11.23;;
61471;SDS011;47337;54.068;12.114;2024-02-28T13:19:58;20.67;;;11.15;;
61471;SDS011;47337;54.068;12.114;2024-02-28T13:22:23;18.45;;;10.25;;
61471;SDS011;47337;54.068;12.114;2024-02-28T13:24:48;20.55;;;11.55;;
61471;SDS011;47337;54.068;12.114;2024-02-28T13:27:16;18.05;;;10.07;;
61471;SDS011;47337;54.068;12.114;2024-02-28T13:29:41;19.23;;;10.90;;
61471;SDS011;47337;54.068;12.114;2024-02-28T13:32:09;19.02;;;10.73;;
61471;SDS011;47337;54.068;12.114;2024-02-28T13:34:34;19.23;;;10.43;;
61471;SDS011;47337;54.068;12.114;2024-02-28T13:36:59;20.95;;;11.10;;
61471;SDS011;47337;54.068;12.114;2024-02-28T13:39:25;18.85;;;10.55;;
61471;SDS011;47337;54.068;12.114;2024-02-28T13:41:51;19.77;;;11.13;;
61471;SDS011;47337;54.068;12.114;2024-02-28T13:44:17;18.55;;;10.07;;
61471;SDS011;47337;54.068;12.114;2024-02-28T13:46:45;19.92;;;10.25;;
61471;SDS011;47337;54.068;12.114;2024-02-28T13:49:10;18.77;;;11.00;;
61471;SDS011;47337;54.068;12.114;2024-02-28T13:51:35;19.70;;;10.18;;
61471;SDS011;47337;54.068;12.114;2024-02-28T13:54:01;20.33;;;10.70;;
61471;SDS011;47337;54.068;12.114;2024-02-28T13:56:27;20.48;;;9.88;;
61471;SDS011;47337;54.068;12.114;2024-02-28T13:58:54;18.25;;;10.02;;
61471;SDS011;47337;54.068;12.114;2024-02-28T14:01:21;18.23;;;10.00;;
61471;SDS011;47337;54.068;12.114;2024-02-28T14:03:46;18.83;;;10.70;;
61471;SDS011;47337;54.068;12.114;2024-02-28T14:06:14;18.75;;;10.20;;
61471;SDS011;47337;54.068;12.114;2024-02-28T14:08:39;21.95;;;11.15;;
61471;SDS011;47337;54.068;12.114;2024-02-28T14:11:04;20.80;;;10.57;;